Time;durP1;ratioP1;P1;durP2;ratioP2;P2;SDS_P1;SDS_P2;PMS_P1;PMS_P2;Temp;Humidity;BMP_temperature;BMP_pressure;BME280_temperature;BME280_humidity;BME280_pressure;Samples;Min_cycle;Max_cycle;Signal;HPM_P1;HPM_P2
2023/05/08 04:01:06;;;;;;;0.60;0.20;;;14.70;99.90;;;;;;5803002;23;21986;-72
2023/05/08 04:03:47;;;;;;;2.47;1.37;;;14.60;99.90;;;;;;4956410;29;20443;-72
2023/05/08 04:06:25;;;;;;;0.60;0.20;;;14.50;99.90;;;;;;4958105;29;20479;-72
2023/05/08 04:09:04;;;;;;;0.60;0.13;;;14.60;99.90;;;;;;4957180;29;20467;-72
2023/05/08 04:11:44;;;;;;;0.60;0.10;;;14.60;99.90;;;;;;4956817;28;20502;-72
2023/05/08 04:14:17;;;;;;;6.90;1.65;;;14.60;99.90;;;;;;4973579;23;20452;-73
2023/05/08 04:16:49;;;;;;;0.60;0.10;;;14.60;99.90;;;;;;4936466;29;20460;-73
2023/05/08 04:19:24;;;;;;;0.60;0.10;;;14.60;99.90;;;;;;4921749;29;20447;-75
2023/05/08 04:21:57;;;;;;;0.60;0.10;;;14.60;99.90;;;;;;4919864;29;20537;-75
2023/05/08 04:24:25;;;;;;;1.60;1.23;;;14.60;99.90;;;;;;4923122;29;20464;-74
2023/05/08 04:26:54;;;;;;;0.60;0.20;;;14.60;99.90;;;;;;4939551;29;20476;-73
2023/05/08 04:29:22;;;;;;;0.83;0.30;;;14.60;99.90;;;;;;4942302;29;20457;-74
2023/05/08 04:31:52;;;;;;;0.60;0.20;;;14.60;99.90;;;;;;4936179;29;20468;-73
2023/05/08 04:34:20;;;;;;;0.60;0.10;;;14.60;99.90;;;;;;4934532;29;20484;-74
2023/05/08 04:36:48;;;;;;;0.90;0.63;;;14.60;99.90;;;;;;4936942;29;20445;-75
2023/05/08 04:39:17;;;;;;;0.60;0.10;;;14.60;99.90;;;;;;4937594;29;20527;-75
2023/05/08 04:41:46;;;;;;;0.60;0.10;;;14.50;99.90;;;;;;4937252;29;20467;-75
2023/05/08 04:44:14;;;;;;;0.60;0.20;;;14.50;99.90;;;;;;4937122;29;20849;-74
2023/05/08 04:46:42;;;;;;;0.60;0.10;;;14.50;99.90;;;;;;4934996;29;21119;-74
2023/05/08 04:49:11;;;;;;;1.77;1.30;;;14.50;99.90;;;;;;4936672;29;20445;-73
2023/05/08 04:51:39;;;;;;;0.60;0.10;;;14.50;99.90;;;;;;4937643;29;20453;-75
2023/05/08 04:54:07;;;;;;;0.60;0.20;;;14.40;99.90;;;;;;4936950;29;20816;-73
2023/05/08 04:56:35;;;;;;;1.27;1.17;;;14.40;99.90;;;;;;4937526;29;20441;-73
2023/05/08 04:59:03;;;;;;;0.80;0.77;;;14.40;99.90;;;;;;4937794;29;20460;-75
2023/05/08 05:01:31;;;;;;;0.60;0.10;;;14.40;99.90;;;;;;4937971;29;20546;-75
2023/05/08 05:03:59;;;;;;;0.60;0.20;;;;;;;;;;4937672;29;20456;-75
2023/05/08 05:06:28;;;;;;;0.60;0.10;;;14.40;99.90;;;;;;4939750;29;20575;-74
2023/05/08 05:08:56;;;;;;;0.60;0.10;;;14.50;99.90;;;;;;4944813;29;20456;-75
2023/05/08 05:11:25;;;;;;;0.60;0.13;;;14.50;99.90;;;;;;4948884;29;20439;-75
2023/05/08 05:13:52;;;;;;;1.03;0.87;;;14.50;99.90;;;;;;4951273;29;20445;-74
2023/05/08 05:16:20;;;;;;;0.60;0.10;;;14.50;99.90;;;;;;4945279;29;20484;-74
2023/05/08 05:18:48;;;;;;;0.70;0.37;;;14.50;99.90;;;;;;4938165;29;20448;-74
2023/05/08 05:21:16;;;;;;;0.60;0.20;;;14.50;99.90;;;;;;4937160;29;20466;-74
2023/05/08 05:23:45;;;;;;;2.43;1.17;;;14.50;99.90;;;;;;4938519;29;20481;-75
2023/05/08 05:26:13;;;;;;;1.33;0.40;;;14.50;99.90;;;;;;4936412;29;20482;-75
2023/05/08 05:28:41;;;;;;;2.20;2.00;;;14.50;99.90;;;;;;4937238;29;20444;-75
2023/05/08 05:31:10;;;;;;;0.60;0.30;;;14.50;99.90;;;;;;4936725;29;20452;-75
2023/05/08 05:33:38;;;;;;;0.60;0.10;;;14.10;99.90;;;;;;4936286;29;20548;-74
2023/05/08 05:36:06;;;;;;;0.70;0.20;;;14.40;99.90;;;;;;4936100;29;20466;-73
2023/05/08 05:38:34;;;;;;;0.60;0.10;;;14.40;99.90;;;;;;4935261;29;20475;-74
2023/05/08 05:41:03;;;;;;;0.60;0.27;;;14.40;99.90;;;;;;4935435;29;20519;-75
2023/05/08 05:43:32;;;;;;;0.60;0.20;;;14.40;99.90;;;;;;4935799;29;20932;-74
2023/05/08 05:46:04;;;;;;;0.70;0.70;;;14.40;99.90;;;;;;4936098;29;20469;-73
2023/05/08 05:48:32;;;;;;;0.60;0.10;;;14.30;99.90;;;;;;4935391;29;21001;-74
2023/05/08 05:51:00;;;;;;;0.60;0.30;;;14.30;99.90;;;;;;4934203;29;20522;-75
2023/05/08 05:53:30;;;;;;;1.10;0.90;;;14.20;99.90;;;;;;4934839;29;20449;-74
2023/05/08 05:55:58;;;;;;;0.60;0.20;;;14.30;99.90;;;;;;4935679;29;20473;-74
2023/05/08 05:58:28;;;;;;;0.60;0.20;;;14.20;99.90;;;;;;4936539;29;20799;-74
2023/05/08 06:00:59;;;;;;;0.80;0.50;;;14.30;99.90;;;;;;4936422;29;20452;-74
2023/05/08 06:03:27;;;;;;;0.60;0.10;;;14.30;99.90;;;;;;4935444;29;20437;-75
2023/05/08 06:05:55;;;;;;;0.60;0.10;;;14.30;99.90;;;;;;4936373;29;21014;-73
2023/05/08 06:08:23;;;;;;;0.60;0.10;;;14.30;99.90;;;;;;4938334;29;20465;-75
2023/05/08 06:10:51;;;;;;;0.60;0.10;;;14.20;99.90;;;;;;4939592;29;20460;-73
2023/05/08 06:13:19;;;;;;;2.17;1.07;;;14.20;99.90;;;;;;4936654;29;20456;-75
2023/05/08 06:15:49;;;;;;;0.60;0.20;;;14.30;99.90;;;;;;4936248;29;20508;-75
2023/05/08 06:18:17;;;;;;;0.60;0.10;;;14.30;99.90;;;;;;4936531;29;20462;-75
2023/05/08 06:20:45;;;;;;;0.60;0.20;;;14.30;99.90;;;;;;4936244;29;20451;-74
2023/05/08 06:23:13;;;;;;;0.60;0.20;;;14.30;99.90;;;;;;4935922;29;20835;-74
2023/05/08 06:25:41;;;;;;;1.80;1.70;;;14.30;99.90;;;;;;4936378;29;20579;-74
2023/05/08 06:28:09;;;;;;;0.60;0.10;;;14.30;99.90;;;;;;4936083;29;20484;-73
2023/05/08 06:30:36;;;;;;;0.80;0.80;;;14.30;99.90;;;;;;4936767;29;20449;-75
2023/05/08 06:33:06;;;;;;;0.80;0.60;;;14.30;99.90;;;;;;4936259;29;20448;-73
2023/05/08 06:35:35;;;;;;;2.10;2.00;;;;;;;;;;4935682;29;20565;-74
2023/05/08 06:38:03;;;;;;;0.60;0.10;;;14.40;99.90;;;;;;4935961;29;20489;-74
2023/05/08 06:40:31;;;;;;;0.60;0.10;;;14.40;99.90;;;;;;4935782;29;20969;-74
2023/05/08 06:42:59;;;;;;;0.60;0.10;;;14.40;99.90;;;;;;4935188;29;20445;-75
2023/05/08 06:45:26;;;;;;;0.60;0.10;;;14.50;99.90;;;;;;4935456;29;20467;-75
2023/05/08 06:47:54;;;;;;;0.60;0.10;;;14.50;99.90;;;;;;4935435;28;20481;-75
2023/05/08 06:50:24;;;;;;;0.70;0.37;;;14.50;99.90;;;;;;4936111;29;20508;-76
2023/05/08 06:52:52;;;;;;;0.60;0.10;;;14.50;99.90;;;;;;4936365;29;20981;-75
2023/05/08 06:55:20;;;;;;;0.60;0.10;;;14.50;99.90;;;;;;4936008;29;21003;-74
2023/05/08 06:57:48;;;;;;;1.17;0.80;;;14.60;99.90;;;;;;4936615;29;20444;-75
2023/05/08 07:00:16;;;;;;;0.60;0.20;;;14.50;99.90;;;;;;4935504;29;20871;-75
2023/05/08 07:02:44;;;;;;;0.60;0.10;;;14.60;99.90;;;;;;4934503;29;20464;-74
2023/05/08 07:05:12;;;;;;;0.60;0.10;;;14.60;99.90;;;;;;4934876;29;20477;-75
2023/05/08 07:07:42;;;;;;;0.60;0.10;;;14.70;99.90;;;;;;4934717;29;21001;-74
2023/05/08 07:10:10;;;;;;;0.60;0.20;;;14.70;99.90;;;;;;4934950;29;20524;-74
2023/05/08 07:12:38;;;;;;;0.60;0.13;;;14.70;99.90;;;;;;4934959;29;20982;-75
2023/05/08 07:15:08;;;;;;;0.70;0.40;;;14.70;99.90;;;;;;4934585;29;20847;-75
2023/05/08 07:17:51;;;;;;;0.60;0.30;;;14.60;99.90;;;;;;4935466;29;20516;-75
2023/05/08 07:20:20;;;;;;;1.80;1.70;;;14.60;99.90;;;;;;4935023;29;20951;-75
2023/05/08 07:22:50;;;;;;;0.80;0.43;;;14.60;99.90;;;;;;4934760;29;20447;-75
2023/05/08 07:25:18;;;;;;;0.70;0.20;;;14.50;99.90;;;;;;4935143;29;20483;-74
2023/05/08 07:27:46;;;;;;;2.33;1.00;;;14.70;99.90;;;;;;4934714;29;20493;-75
2023/05/08 07:30:14;;;;;;;0.80;0.30;;;14.60;99.90;;;;;;4934980;29;20456;-75
2023/05/08 07:32:42;;;;;;;0.60;0.10;;;;;;;;;;4934688;29;20460;-75
2023/05/08 07:35:11;;;;;;;0.60;0.10;;;14.70;99.90;;;;;;4934374;29;20480;-75
2023/05/08 07:37:39;;;;;;;0.60;0.10;;;14.70;99.90;;;;;;4934696;29;20533;-75
2023/05/08 07:40:09;;;;;;;5.83;0.93;;;14.80;99.90;;;;;;4934797;29;20459;-74
2023/05/08 07:42:41;;;;;;;0.60;0.10;;;14.80;99.90;;;;;;4934785;29;20457;-74
2023/05/08 07:45:10;;;;;;;1.00;0.43;;;14.80;99.90;;;;;;4936771;29;20487;-75
2023/05/08 07:47:39;;;;;;;0.60;0.10;;;14.80;99.90;;;;;;4937721;29;20491;-74
2023/05/08 07:50:07;;;;;;;1.00;0.50;;;14.80;99.90;;;;;;4935776;29;20445;-76
2023/05/08 07:52:35;;;;;;;1.03;0.37;;;14.80;99.90;;;;;;4934758;29;20990;-74
2023/05/08 07:55:03;;;;;;;0.70;0.30;;;14.90;99.90;;;;;;4934553;29;20469;-75
2023/05/08 07:57:37;;;;;;;0.70;0.40;;;14.90;99.90;;;;;;4934674;29;20524;-75
2023/05/08 08:00:07;;;;;;;0.60;0.10;;;15.00;99.90;;;;;;4935900;29;20940;-75
2023/05/08 08:02:34;;;;;;;0.60;0.27;;;15.00;99.90;;;;;;4938714;29;20475;-75
2023/05/08 08:05:03;;;;;;;0.60;0.10;;;15.10;99.90;;;;;;4939108;29;20549;-75
2023/05/08 08:07:31;;;;;;;0.70;0.40;;;15.20;99.90;;;;;;4939123;29;20515;-75
2023/05/08 08:09:59;;;;;;;0.60;0.10;;;15.20;99.90;;;;;;4938776;29;20460;-75
2023/05/08 08:12:28;;;;;;;0.60;0.10;;;15.20;99.90;;;;;;4938181;29;20810;-75
2023/05/08 08:14:57;;;;;;;0.90;0.67;;;15.20;99.90;;;;;;4952374;28;20498;-75
2023/05/08 08:17:25;;;;;;;0.60;0.10;;;15.30;99.90;;;;;;4957632;29;20461;-74
2023/05/08 08:19:55;;;;;;;0.60;0.37;;;15.20;99.90;;;;;;4957498;29;20873;-74
2023/05/08 08:22:23;;;;;;;0.60;0.20;;;15.20;99.90;;;;;;4957285;29;20449;-74
2023/05/08 08:24:51;;;;;;;1.33;1.23;;;15.20;99.90;;;;;;4957554;28;20808;-76
2023/05/08 08:27:22;;;;;;;0.60;0.20;;;;;;;;;;4956851;29;20446;-75
2023/05/08 08:29:50;;;;;;;0.60;0.10;;;15.20;99.90;;;;;;4958527;29;20451;-74
2023/05/08 08:32:32;;;;;;;0.67;0.47;;;15.30;99.90;;;;;;4958016;29;20463;-76
2023/05/08 08:35:00;;;;;;;0.70;0.50;;;15.30;99.90;;;;;;4957709;28;20559;-74
2023/05/08 08:37:28;;;;;;;0.60;0.13;;;15.30;99.90;;;;;;4958218;29;20546;-76
2023/05/08 08:39:56;;;;;;;0.60;0.20;;;15.40;99.90;;;;;;4963557;29;20487;-75
2023/05/08 08:42:24;;;;;;;0.60;0.10;;;15.50;99.90;;;;;;4974240;29;20513;-75
2023/05/08 08:44:52;;;;;;;0.60;0.20;;;15.50;99.90;;;;;;4975960;28;20484;-75
2023/05/08 08:47:27;;;;;;;0.70;0.43;;;15.60;99.90;;;;;;4972171;29;20456;-74
2023/05/08 08:50:02;;;;;;;0.60;0.33;;;15.50;99.90;;;;;;4964255;29;20451;-75
2023/05/08 08:52:38;;;;;;;0.60;0.20;;;15.40;99.90;;;;;;4959866;29;21074;-75
2023/05/08 08:55:09;;;;;;;0.90;0.80;;;15.50;99.90;;;;;;4958838;28;20469;-75
2023/05/08 08:57:39;;;;;;;0.60;0.10;;;15.50;99.90;;;;;;4958701;29;20451;-75
2023/05/08 09:00:09;;;;;;;0.60;0.10;;;15.60;99.90;;;;;;4958396;29;20457;-74
2023/05/08 09:02:37;;;;;;;0.83;0.83;;;15.70;99.90;;;;;;4959127;29;20444;-74
2023/05/08 09:05:09;;;;;;;0.60;0.10;;;15.70;99.90;;;;;;4958283;28;20825;-76
2023/05/08 09:07:38;;;;;;;0.60;0.20;;;15.70;99.90;;;;;;4957728;29;20449;-74
2023/05/08 09:10:07;;;;;;;0.60;0.20;;;15.80;99.90;;;;;;4957134;29;20447;-76
2023/05/08 09:12:34;;;;;;;0.60;0.10;;;15.80;99.90;;;;;;4938877;29;20851;-75
2023/05/08 09:15:02;;;;;;;0.90;0.67;;;15.80;99.90;;;;;;4939553;29;20484;-75
2023/05/08 09:17:30;;;;;;;0.60;0.10;;;15.80;99.90;;;;;;4938852;29;20535;-75
2023/05/08 09:19:59;;;;;;;0.60;0.10;;;15.90;99.90;;;;;;4938741;29;20458;-75
2023/05/08 09:22:29;;;;;;;0.60;0.20;;;15.80;99.90;;;;;;4937882;29;20462;-75
2023/05/08 09:24:59;;;;;;;0.60;0.37;;;15.90;99.90;;;;;;4940179;29;20846;-74
2023/05/08 09:27:28;;;;;;;0.97;0.97;;;15.80;99.90;;;;;;4941822;29;20445;-75
2023/05/08 09:30:01;;;;;;;2.83;2.63;;;15.80;99.90;;;;;;4939772;29;20492;-74
2023/05/08 09:32:30;;;;;;;0.60;0.10;;;15.80;99.90;;;;;;4937152;29;20921;-76
2023/05/08 09:34:58;;;;;;;0.60;0.10;;;15.80;99.90;;;;;;4936948;29;20477;-75
2023/05/08 09:37:26;;;;;;;0.60;0.10;;;15.90;99.90;;;;;;4936830;29;20459;-75
2023/05/08 09:40:14;;;;;;;0.60;0.10;;;15.90;99.90;;;;;;4936773;29;20623;-75
2023/05/08 09:42:41;;;;;;;0.60;0.10;;;15.90;99.90;;;;;;4936125;29;20461;-77
2023/05/08 09:45:10;;;;;;;0.60;0.10;;;15.80;99.90;;;;;;4935937;29;20471;-75
2023/05/08 09:47:47;;;;;;;0.60;0.10;;;15.90;99.90;;;;;;4936331;29;20456;-76
2023/05/08 09:50:15;;;;;;;0.60;0.10;;;16.00;99.90;;;;;;4936098;29;20490;-75
2023/05/08 09:52:47;;;;;;;0.60;0.10;;;16.00;99.90;;;;;;4935581;29;20463;-74
2023/05/08 09:55:17;;;;;;;0.73;0.70;;;16.10;99.90;;;;;;4935921;29;20475;-74
2023/05/08 09:57:56;;;;;;;0.60;0.10;;;16.10;99.90;;;;;;4935940;29;20982;-74
2023/05/08 10:00:25;;;;;;;0.60;0.23;;;16.10;99.90;;;;;;4936141;29;20457;-75
2023/05/08 10:02:58;;;;;;;0.60;0.10;;;16.10;99.90;;;;;;4935708;29;21000;-74
2023/05/08 10:05:28;;;;;;;0.60;0.20;;;16.10;99.90;;;;;;4940282;29;20507;-75
2023/05/08 10:07:57;;;;;;;0.60;0.10;;;16.10;99.90;;;;;;4937678;29;20453;-75
2023/05/08 10:10:29;;;;;;;0.60;0.10;;;16.10;99.90;;;;;;4935807;29;20488;-75
2023/05/08 10:12:58;;;;;;;0.70;0.30;;;16.00;99.90;;;;;;4936429;29;20808;-73
2023/05/08 10:15:29;;;;;;;0.60;0.10;;;16.00;99.90;;;;;;4957103;23;20945;-73
2023/05/08 10:18:03;;;;;;;1.60;1.50;;;16.00;99.90;;;;;;4954767;29;20830;-73
2023/05/08 10:20:38;;;;;;;0.70;0.20;;;15.90;99.90;;;;;;4954527;28;20448;-73
2023/05/08 10:23:10;;;;;;;1.13;0.50;;;15.90;99.90;;;;;;4953928;28;20998;-73
2023/05/08 10:25:47;;;;;;;0.70;0.20;;;15.90;99.90;;;;;;4954636;28;20537;-74
2023/05/08 10:28:22;;;;;;;0.60;0.10;;;12.10;99.90;;;;;;4954762;29;20500;-73
2023/05/08 10:30:50;;;;;;;0.60;0.20;;;15.90;99.90;;;;;;4954488;29;20438;-73
2023/05/08 10:33:21;;;;;;;0.70;0.63;;;16.00;99.90;;;;;;4954476;29;20557;-73
2023/05/08 10:35:49;;;;;;;0.60;0.20;;;;;;;;;;4954474;28;20472;-73
2023/05/08 10:38:18;;;;;;;2.00;1.90;;;16.10;99.90;;;;;;4954217;29;20453;-72
2023/05/08 10:40:49;;;;;;;1.30;1.20;;;16.20;99.90;;;;;;4954360;29;20453;-72
2023/05/08 10:43:18;;;;;;;0.60;0.20;;;16.30;99.90;;;;;;4953930;28;20899;-73
2023/05/08 10:45:46;;;;;;;0.70;0.50;;;16.30;99.90;;;;;;4954515;28;20477;-72
2023/05/08 10:48:29;;;;;;;0.60;0.20;;;16.40;99.90;;;;;;4954241;29;20447;-73
2023/05/08 10:51:03;;;;;;;0.60;0.20;;;16.60;99.90;;;;;;4954262;29;20526;-73
2023/05/08 10:53:38;;;;;;;0.60;0.20;;;16.70;99.90;;;;;;4954418;29;20453;-74
2023/05/08 10:56:08;;;;;;;0.70;0.57;;;16.60;99.90;;;;;;4954386;28;20507;-72
2023/05/08 10:58:38;;;;;;;0.70;0.33;;;16.60;99.90;;;;;;4954947;28;20444;-73
2023/05/08 11:01:13;;;;;;;0.60;0.10;;;16.60;99.90;;;;;;4954763;28;20450;-72
2023/05/08 11:03:44;;;;;;;0.80;0.33;;;16.70;99.90;;;;;;4954398;29;20456;-73
2023/05/08 11:06:12;;;;;;;0.60;0.10;;;16.70;99.90;;;;;;4954224;28;20470;-73
2023/05/08 11:08:48;;;;;;;0.70;0.40;;;16.80;99.90;;;;;;4954262;29;20939;-72
2023/05/08 11:11:25;;;;;;;0.60;0.10;;;16.90;99.90;;;;;;4965104;28;20500;-73
2023/05/08 11:13:59;;;;;;;0.60;0.10;;;17.10;99.90;;;;;;4973020;28;20490;-73
2023/05/08 11:17:07;;;;;;;0.60;0.10;;;17.30;99.90;;;;;;4973701;28;20484;-73
2023/05/08 11:19:37;;;;;;;0.80;0.57;;;17.50;99.90;;;;;;4973477;28;20937;-73
2023/05/08 11:22:23;;;;;;;0.60;0.30;;;17.60;99.90;;;;;;4974747;28;20441;-72
2023/05/08 11:24:55;;;;;;;0.60;0.33;;;17.60;99.90;;;;;;4973195;28;20462;-73
2023/05/08 11:27:38;;;;;;;0.60;0.10;;;17.50;99.90;;;;;;4973158;28;20464;-73
2023/05/08 11:30:20;;;;;;;0.60;0.30;;;17.60;99.90;;;;;;4972876;28;20485;-72
2023/05/08 11:33:16;;;;;;;0.60;0.27;;;17.60;99.90;;;;;;4972909;28;20449;-73
2023/05/08 11:35:52;;;;;;;0.60;0.10;;;17.70;99.90;;;;;;4957597;28;20475;-73
2023/05/08 11:38:32;;;;;;;1.10;0.63;;;17.80;99.90;;;;;;4976600;28;20952;-73
2023/05/08 11:41:03;;;;;;;0.70;0.47;;;17.90;99.90;;;;;;4976724;28;20486;-74
2023/05/08 11:44:19;;;;;;;1.93;0.30;;;17.90;99.90;;;;;;4976752;28;20480;-72
2023/05/08 11:46:52;;;;;;;0.60;0.10;;;17.90;99.90;;;;;;4898292;29;20481;-73
2023/05/08 11:49:21;;;;;;;0.60;0.10;;;18.10;99.90;;;;;;4897612;29;20508;-73
2023/05/08 11:51:58;;;;;;;0.60;0.20;;;18.10;99.90;;;;;;4948180;28;20449;-73
2023/05/08 11:54:29;;;;;;;0.60;0.10;;;18.20;99.90;;;;;;4976227;28;20448;-72
2023/05/08 11:56:58;;;;;;;0.60;0.10;;;18.30;99.90;;;;;;4976594;28;20475;-72
2023/05/08 11:59:27;;;;;;;0.60;0.10;;;18.30;99.90;;;;;;4977098;28;20502;-73
2023/05/08 12:01:55;;;;;;;1.13;0.97;;;18.20;99.90;;;;;;4976270;28;20442;-72
2023/05/08 12:04:44;;;;;;;0.60;0.20;;;18.30;99.90;;;;;;4976575;28;20475;-73
2023/05/08 12:07:12;;;;;;;0.60;0.20;;;;;;;;;;4976208;28;20820;-72
2023/05/08 12:09:40;;;;;;;0.60;0.20;;;18.40;99.90;;;;;;4976285;28;20512;-73
2023/05/08 12:12:08;;;;;;;0.70;0.37;;;;;;;;;;4957827;28;20856;-72
2023/05/08 12:14:37;;;;;;;0.60;0.10;;;18.60;99.90;;;;;;4956702;28;20877;-72
2023/05/08 12:17:05;;;;;;;0.60;0.20;;;18.70;99.90;;;;;;4956866;29;20449;-72
2023/05/08 12:19:33;;;;;;;0.60;0.20;;;18.70;99.90;;;;;;4957023;29;20453;-72
2023/05/08 12:22:01;;;;;;;0.60;0.20;;;18.80;99.90;;;;;;4956792;29;20453;-72
2023/05/08 12:24:29;;;;;;;0.60;0.10;;;18.90;99.90;;;;;;4956684;28;20457;-72
2023/05/08 12:26:56;;;;;;;0.70;0.30;;;18.90;99.90;;;;;;4957033;29;20474;-72
2023/05/08 12:29:25;;;;;;;0.70;0.50;;;;;;;;;;4956673;28;20449;-72
2023/05/08 12:31:54;;;;;;;0.60;0.20;;;19.10;99.90;;;;;;4956737;28;20490;-71
2023/05/08 12:34:22;;;;;;;1.27;1.17;;;19.20;99.90;;;;;;4960833;29;20469;-73
2023/05/08 12:37:01;;;;;;;0.60;0.10;;;19.10;99.90;;;;;;4957908;28;20492;-73
2023/05/08 12:39:34;;;;;;;0.60;0.10;;;19.10;99.90;;;;;;4956676;29;20446;-73
2023/05/08 12:42:02;;;;;;;0.60;0.20;;;19.30;99.90;;;;;;4956742;29;20458;-73
2023/05/08 12:44:31;;;;;;;0.60;0.20;;;;;;;;;;4955905;28;20785;-73
2023/05/08 12:47:00;;;;;;;0.60;0.20;;;19.40;99.90;;;;;;4956165;28;20447;-73
2023/05/08 12:49:30;;;;;;;0.70;0.30;;;19.30;99.90;;;;;;4956553;29;20457;-72
2023/05/08 12:52:02;;;;;;;0.60;0.20;;;19.30;99.90;;;;;;4956516;28;20482;-73
2023/05/08 12:54:37;;;;;;;0.60;0.10;;;19.40;99.90;;;;;;4955947;28;20951;-73
2023/05/08 12:57:11;;;;;;;0.60;0.10;;;19.60;99.90;;;;;;4956099;28;20451;-73
2023/05/08 12:59:40;;;;;;;0.93;0.60;;;19.60;99.90;;;;;;4955978;29;20955;-73
2023/05/08 13:02:17;;;;;;;0.60;0.10;;;19.70;99.90;;;;;;4955969;28;20861;-73
2023/05/08 13:04:46;;;;;;;0.90;0.20;;;19.90;99.90;;;;;;4955764;28;20453;-72
2023/05/08 13:07:14;;;;;;;0.60;0.20;;;19.90;99.90;;;;;;4955901;29;20864;-72
2023/05/08 13:09:56;;;;;;;0.60;0.20;;;20.10;99.90;;;;;;4956196;29;20454;-73
2023/05/08 13:12:25;;;;;;;1.27;1.17;;;;;;;;;;4937110;29;20466;-73
2023/05/08 13:14:53;;;;;;;0.60;0.17;;;20.10;99.90;;;;;;4936459;29;20476;-74
2023/05/08 13:17:22;;;;;;;0.60;0.10;;;20.10;99.90;;;;;;4936771;29;20456;-74
2023/05/08 13:19:50;;;;;;;0.60;0.20;;;20.20;99.90;;;;;;4936170;29;20468;-73
2023/05/08 13:22:21;;;;;;;0.60;0.10;;;20.20;99.90;;;;;;4936370;29;20448;-73
2023/05/08 13:24:49;;;;;;;0.60;0.20;;;20.30;99.90;;;;;;4936812;29;20524;-73
2023/05/08 13:27:17;;;;;;;0.60;0.20;;;;;;;;;;4936718;29;20448;-75
2023/05/08 13:29:45;;;;;;;0.90;0.40;;;20.20;99.90;;;;;;4936506;29;20455;-73
2023/05/08 13:32:13;;;;;;;0.60;0.10;;;20.30;99.90;;;;;;4935763;29;21011;-73
2023/05/08 13:34:43;;;;;;;0.90;0.30;;;20.30;99.90;;;;;;4936189;29;20449;-73
2023/05/08 13:37:17;;;;;;;0.60;0.10;;;20.30;99.90;;;;;;4936351;29;20448;-73
2023/05/08 13:39:45;;;;;;;0.60;0.20;;;20.30;99.90;;;;;;4936456;29;20483;-73
2023/05/08 13:42:13;;;;;;;0.60;0.20;;;20.40;99.90;;;;;;4935886;29;20817;-74
2023/05/08 13:44:41;;;;;;;0.90;0.20;;;20.40;99.90;;;;;;4936139;29;20452;-74
2023/05/08 13:47:10;;;;;;;0.60;0.10;;;20.40;99.90;;;;;;4935931;29;20467;-73
2023/05/08 13:49:38;;;;;;;0.60;0.20;;;20.50;99.90;;;;;;4936309;29;21079;-73
2023/05/08 13:52:08;;;;;;;0.60;0.10;;;20.40;99.90;;;;;;4935834;29;20487;-74
2023/05/08 13:54:35;;;;;;;0.83;0.60;;;20.30;99.90;;;;;;4935632;29;20475;-73
2023/05/08 13:57:03;;;;;;;0.60;0.20;;;20.30;99.90;;;;;;4935777;29;20453;-73
2023/05/08 13:59:31;;;;;;;0.60;0.20;;;20.30;99.90;;;;;;4935595;29;20508;-74
2023/05/08 14:01:59;;;;;;;0.67;0.43;;;20.40;99.90;;;;;;4936191;29;20456;-72
2023/05/08 14:04:28;;;;;;;0.60;0.20;;;;;;;;;;4935870;29;20459;-72
2023/05/08 14:06:56;;;;;;;1.67;1.57;;;20.50;99.90;;;;;;4936945;29;20457;-73
2023/05/08 14:09:25;;;;;;;0.60;0.20;;;20.40;99.90;;;;;;4936216;29;20524;-72
2023/05/08 14:11:53;;;;;;;0.60;0.30;;;20.50;99.90;;;;;;4966826;28;20565;-73
2023/05/08 14:14:20;;;;;;;0.73;0.73;;;20.50;99.90;;;;;;4974133;28;20458;-74
2023/05/08 14:16:49;;;;;;;1.17;1.07;;;20.60;99.90;;;;;;4974346;28;20514;-73
2023/05/08 14:19:17;;;;;;;0.80;0.43;;;20.50;99.90;;;;;;4974491;28;20442;-73
2023/05/08 14:21:46;;;;;;;0.60;0.10;;;20.60;99.90;;;;;;4974838;28;20459;-74
2023/05/08 14:24:13;;;;;;;0.60;0.10;;;20.80;99.90;;;;;;4974701;28;20974;-73
2023/05/08 14:26:43;;;;;;;0.60;0.20;;;;;;;;;;4973839;28;20495;-74
2023/05/08 14:29:11;;;;;;;0.60;0.10;;;20.90;99.90;;;;;;4973891;28;20451;-74
2023/05/08 14:31:39;;;;;;;0.60;0.10;;;21.10;99.90;;;;;;4973454;28;20486;-73
2023/05/08 14:34:07;;;;;;;0.60;0.20;;;;;;;;;;4973619;28;20458;-73
2023/05/08 14:36:35;;;;;;;0.60;0.10;;;25.50;99.90;;;;;;4973726;28;20482;-73
2023/05/08 14:39:04;;;;;;;0.80;0.50;;;21.10;99.90;;;;;;4973906;28;20455;-73
2023/05/08 14:41:32;;;;;;;0.60;0.20;;;21.20;99.90;;;;;;4973734;28;20808;-74
2023/05/08 14:44:02;;;;;;;0.60;0.13;;;21.20;99.90;;;;;;4973691;28;20448;-73
2023/05/08 14:46:31;;;;;;;0.60;0.20;;;;;;;;;;4973541;28;20491;-72
2023/05/08 14:48:59;;;;;;;1.53;1.43;;;;;;;;;;4973114;28;20539;-72
2023/05/08 14:51:27;;;;;;;1.00;0.30;;;21.20;99.90;;;;;;4974306;28;20842;-73
2023/05/08 14:53:55;;;;;;;0.60;0.20;;;21.10;99.90;;;;;;4973001;28;20451;-72
2023/05/08 14:56:23;;;;;;;0.60;0.20;;;;;;;;;;4973291;28;20892;-71
2023/05/08 14:58:54;;;;;;;1.43;1.13;;;21.00;99.90;;;;;;4973243;28;20539;-73
2023/05/08 15:01:23;;;;;;;1.43;0.93;;;21.00;99.90;;;;;;4973411;28;20456;-73
2023/05/08 15:03:52;;;;;;;0.60;0.10;;;21.00;99.90;;;;;;4974028;28;20454;-73
2023/05/08 15:06:21;;;;;;;0.60;0.20;;;20.90;99.90;;;;;;4973466;28;20816;-74
2023/05/08 15:08:50;;;;;;;0.60;0.20;;;20.90;99.90;;;;;;4974563;28;21116;-73
2023/05/08 15:11:18;;;;;;;0.60;0.20;;;21.00;99.90;;;;;;4968752;28;20980;-72
2023/05/08 15:13:46;;;;;;;0.60;0.10;;;21.10;99.90;;;;;;4959977;29;20508;-72
2023/05/08 15:16:14;;;;;;;0.60;0.20;;;21.10;99.90;;;;;;4960370;28;20475;-74
2023/05/08 15:18:43;;;;;;;0.60;0.20;;;21.20;99.90;;;;;;4960002;28;20440;-73
2023/05/08 15:21:11;;;;;;;0.60;0.13;;;21.10;99.90;;;;;;4959864;28;20439;-77
2023/05/08 15:23:39;;;;;;;0.60;0.20;;;21.10;99.90;;;;;;4959244;28;20520;-76
2023/05/08 15:26:07;;;;;;;0.60;0.20;;;21.10;99.90;;;;;;4961442;28;20563;-75
2023/05/08 15:28:35;;;;;;;0.60;0.20;;;;;;;;;;4960199;28;20447;-74
2023/05/08 15:31:04;;;;;;;0.60;0.20;;;21.10;99.90;;;;;;4960411;29;20462;-74
2023/05/08 15:33:32;;;;;;;1.20;0.83;;;;;;;;;;4960272;29;20444;-76
2023/05/08 15:36:02;;;;;;;0.60;0.20;;;21.10;99.90;;;;;;4960872;28;20475;-76
2023/05/08 15:38:29;;;;;;;0.60;0.13;;;21.10;99.90;;;;;;4960580;29;20440;-75
2023/05/08 15:40:57;;;;;;;0.60;0.20;;;21.10;99.90;;;;;;4960824;29;20457;-75
2023/05/08 15:43:25;;;;;;;0.60;0.30;;;21.10;99.90;;;;;;4960763;29;20507;-76
2023/05/08 15:45:53;;;;;;;0.60;0.17;;;21.00;99.90;;;;;;4962005;28;20463;-76
2023/05/08 15:48:21;;;;;;;0.60;0.20;;;;;;;;;;4963000;29;20441;-77
2023/05/08 15:50:49;;;;;;;0.60;0.10;;;21.10;99.90;;;;;;4962468;29;20443;-77
2023/05/08 15:53:18;;;;;;;1.27;1.17;;;21.00;99.90;;;;;;4961075;29;20487;-75
2023/05/08 15:55:46;;;;;;;0.60;0.10;;;20.90;99.90;;;;;;4960772;28;20475;-78
2023/05/08 15:58:14;;;;;;;0.60;0.10;;;20.90;99.90;;;;;;4960498;29;20508;-77
2023/05/08 16:00:42;;;;;;;0.60;0.20;;;;;;;;;;4961169;28;20475;-78
2023/05/08 16:03:12;;;;;;;0.60;0.20;;;20.80;99.90;;;;;;4973020;28;20463;-77
2023/05/08 16:05:42;;;;;;;0.60;0.10;;;20.70;99.90;;;;;;4960809;28;20556;-77
2023/05/08 16:08:11;;;;;;;0.60;0.10;;;20.70;99.90;;;;;;4961069;29;20451;-78
2023/05/08 16:10:41;;;;;;;0.60;0.10;;;20.80;99.90;;;;;;4967295;28;20451;-78
2023/05/08 16:13:10;;;;;;;0.60;0.10;;;;;;;;;;4980619;28;20482;-79
2023/05/08 16:15:38;;;;;;;0.60;0.20;;;20.70;99.90;;;;;;4998522;23;20502;-75
2023/05/08 16:18:06;;;;;;;0.60;0.10;;;20.70;99.90;;;;;;4964698;28;20443;-75
2023/05/08 16:20:34;;;;;;;0.60;0.20;;;20.60;99.90;;;;;;4962377;28;20457;-75
2023/05/08 16:23:03;;;;;;;0.60;0.10;;;20.60;99.90;;;;;;4968625;28;20447;-73
2023/05/08 16:25:31;;;;;;;0.60;0.20;;;20.50;99.90;;;;;;4961638;28;20529;-74
2023/05/08 16:28:00;;;;;;;0.60;0.10;;;20.60;99.90;;;;;;4960656;29;20806;-75
2023/05/08 16:30:28;;;;;;;0.60;0.30;;;20.60;99.90;;;;;;4962350;29;20497;-74
2023/05/08 16:32:56;;;;;;;0.70;0.30;;;20.50;99.90;;;;;;4962171;28;20487;-75
2023/05/08 16:35:24;;;;;;;0.60;0.10;;;;;;;;;;4960869;28;20480;-75
2023/05/08 16:37:53;;;;;;;0.60;0.10;;;20.40;99.90;;;;;;4959464;28;20499;-75
2023/05/08 16:40:21;;;;;;;0.60;0.10;;;20.40;99.90;;;;;;4958508;28;20847;-75
2023/05/08 16:42:48;;;;;;;0.60;0.10;;;20.20;99.90;;;;;;4956512;28;20559;-76
2023/05/08 16:45:18;;;;;;;0.60;0.13;;;20.20;99.90;;;;;;4960955;28;20952;-76
2023/05/08 16:47:46;;;;;;;0.60;0.20;;;20.20;99.90;;;;;;4961299;29;20447;-76
2023/05/08 16:50:14;;;;;;;0.87;0.87;;;20.20;99.90;;;;;;4959114;29;20485;-76
2023/05/08 16:52:41;;;;;;;0.60;0.10;;;20.20;99.90;;;;;;4962898;29;20561;-75
2023/05/08 16:55:10;;;;;;;0.77;0.50;;;20.20;99.90;;;;;;4961999;28;20455;-76
2023/05/08 16:57:38;;;;;;;0.60;0.10;;;;;;;;;;4961075;29;20459;-75
2023/05/08 17:00:07;;;;;;;0.60;0.10;;;20.20;99.90;;;;;;4957963;29;20458;-76
2023/05/08 17:02:37;;;;;;;0.60;0.10;;;20.10;99.90;;;;;;4956561;29;20439;-76
2023/05/08 17:05:06;;;;;;;0.60;0.10;;;20.10;99.90;;;;;;4957995;28;20463;-75
2023/05/08 17:07:34;;;;;;;0.60;0.10;;;20.10;99.90;;;;;;4958755;28;20552;-76
2023/05/08 17:10:02;;;;;;;0.60;0.20;;;20.10;99.90;;;;;;4958372;28;20439;-75